Aviation Digital Data Service (ADDS)

Output produced by METARs form (0358 UTC 22 February 2017)
found at http://aviationweather.gov/adds/metars/
 
KPOU 220344Z 2204/2224 20006KT P6SM BKN150 BKN200 
     FM220500 VRB03KT P6SM VCSH SCT025 OVC050 
     FM221500 VRB04KT P6SM VCSH SCT015 BKN035 AMD NOT SKED